sensor_id;sensor_type;location;lat;lon;timestamp;P1;durP1;ratioP1;P2;durP2;ratioP2
66663;SDS011;59683;51.428;-1.994;2024-01-30T00:01:50;3.80;;;0.60;;
66663;SDS011;59683;51.428;-1.994;2024-01-30T00:04:16;2.70;;;0.60;;
66663;SDS011;59683;51.428;-1.994;2024-01-30T00:06:42;1.47;;;0.40;;
66663;SDS011;59683;51.428;-1.994;2024-01-30T00:09:08;4.20;;;0.60;;
66663;SDS011;59683;51.428;-1.994;2024-01-30T00:11:35;2.50;;;0.50;;
66663;SDS011;59683;51.428;-1.994;2024-01-30T00:14:00;3.17;;;0.50;;
66663;SDS011;59683;51.428;-1.994;2024-01-30T00:16:26;3.23;;;0.40;;
66663;SDS011;59683;51.428;-1.994;2024-01-30T00:18:52;5.93;;;0.70;;
66663;SDS011;59683;51.428;-1.994;2024-01-30T00:21:18;3.37;;;0.50;;
66663;SDS011;59683;51.428;-1.994;2024-01-30T00:23:43;4.93;;;0.60;;
66663;SDS011;59683;51.428;-1.994;2024-01-30T00:26:09;3.07;;;0.63;;
66663;SDS011;59683;51.428;-1.994;2024-01-30T00:28:36;4.77;;;1.17;;
66663;SDS011;59683;51.428;-1.994;2024-01-30T00:31:04;9.53;;;0.83;;
66663;SDS011;59683;51.428;-1.994;2024-01-30T00:33:29;3.70;;;0.70;;
66663;SDS011;59683;51.428;-1.994;2024-01-30T00:35:55;11.70;;;2.80;;
66663;SDS011;59683;51.428;-1.994;2024-01-30T00:38:21;7.10;;;1.23;;
66663;SDS011;59683;51.428;-1.994;2024-01-30T00:40:47;5.43;;;0.80;;
66663;SDS011;59683;51.428;-1.994;2024-01-30T00:43:13;7.67;;;1.00;;
66663;SDS011;59683;51.428;-1.994;2024-01-30T00:45:38;5.33;;;0.77;;
66663;SDS011;59683;51.428;-1.994;2024-01-30T00:48:03;5.60;;;0.93;;
66663;SDS011;59683;51.428;-1.994;2024-01-30T00:50:29;6.67;;;0.83;;
66663;SDS011;59683;51.428;-1.994;2024-01-30T00:52:54;4.13;;;1.10;;
66663;SDS011;59683;51.428;-1.994;2024-01-30T00:55:20;5.77;;;0.63;;
66663;SDS011;59683;51.428;-1.994;2024-01-30T00:57:45;4.47;;;0.70;;
66663;SDS011;59683;51.428;-1.994;2024-01-30T01:00:12;6.00;;;1.30;;
66663;SDS011;59683;51.428;-1.994;2024-01-30T01:02:38;9.30;;;1.33;;
66663;SDS011;59683;51.428;-1.994;2024-01-30T01:05:06;2.80;;;1.43;;
66663;SDS011;59683;51.428;-1.994;2024-01-30T01:07:31;3.93;;;0.60;;
66663;SDS011;59683;51.428;-1.994;2024-01-30T01:09:57;4.33;;;0.90;;
66663;SDS011;59683;51.428;-1.994;2024-01-30T01:12:22;4.77;;;1.00;;
66663;SDS011;59683;51.428;-1.994;2024-01-30T01:14:47;5.73;;;1.40;;
66663;SDS011;59683;51.428;-1.994;2024-01-30T01:17:13;4.70;;;0.73;;
66663;SDS011;59683;51.428;-1.994;2024-01-30T01:19:38;3.33;;;0.80;;
66663;SDS011;59683;51.428;-1.994;2024-01-30T01:22:04;5.77;;;1.00;;
66663;SDS011;59683;51.428;-1.994;2024-01-30T01:24:30;4.77;;;0.70;;
66663;SDS011;59683;51.428;-1.994;2024-01-30T01:26:56;1.43;;;0.70;;
66663;SDS011;59683;51.428;-1.994;2024-01-30T01:29:22;6.00;;;1.07;;
66663;SDS011;59683;51.428;-1.994;2024-01-30T01:31:53;5.57;;;0.93;;
66663;SDS011;59683;51.428;-1.994;2024-01-30T01:34:22;3.80;;;1.33;;
66663;SDS011;59683;51.428;-1.994;2024-01-30T01:36:50;2.67;;;0.73;;
66663;SDS011;59683;51.428;-1.994;2024-01-30T01:39:16;4.10;;;1.33;;
66663;SDS011;59683;51.428;-1.994;2024-01-30T01:41:42;4.17;;;0.90;;
66663;SDS011;59683;51.428;-1.994;2024-01-30T01:44:08;3.87;;;0.80;;
66663;SDS011;59683;51.428;-1.994;2024-01-30T01:46:34;4.80;;;1.60;;
66663;SDS011;59683;51.428;-1.994;2024-01-30T01:49:00;4.33;;;1.10;;
66663;SDS011;59683;51.428;-1.994;2024-01-30T01:51:27;5.80;;;1.40;;
66663;SDS011;59683;51.428;-1.994;2024-01-30T01:53:54;4.23;;;1.20;;
66663;SDS011;59683;51.428;-1.994;2024-01-30T01:56:21;5.07;;;1.37;;
66663;SDS011;59683;51.428;-1.994;2024-01-30T01:58:48;4.07;;;0.97;;
66663;SDS011;59683;51.428;-1.994;2024-01-30T02:01:14;7.43;;;2.47;;
66663;SDS011;59683;51.428;-1.994;2024-01-30T02:03:43;3.40;;;1.30;;
66663;SDS011;59683;51.428;-1.994;2024-01-30T02:06:09;2.93;;;0.83;;
66663;SDS011;59683;51.428;-1.994;2024-01-30T02:08:34;5.07;;;1.00;;
66663;SDS011;59683;51.428;-1.994;2024-01-30T02:11:02;3.43;;;0.73;;
66663;SDS011;59683;51.428;-1.994;2024-01-30T02:13:27;2.33;;;0.70;;
66663;SDS011;59683;51.428;-1.994;2024-01-30T02:15:53;3.07;;;1.10;;
66663;SDS011;59683;51.428;-1.994;2024-01-30T02:18:19;3.60;;;1.30;;
66663;SDS011;59683;51.428;-1.994;2024-01-30T02:20:46;4.97;;;1.10;;
66663;SDS011;59683;51.428;-1.994;2024-01-30T02:23:12;3.73;;;1.00;;
66663;SDS011;59683;51.428;-1.994;2024-01-30T02:25:39;4.50;;;1.20;;
66663;SDS011;59683;51.428;-1.994;2024-01-30T02:28:12;4.20;;;2.22;;
66663;SDS011;59683;51.428;-1.994;2024-01-30T02:30:44;4.67;;;1.80;;
66663;SDS011;59683;51.428;-1.994;2024-01-30T02:33:10;5.87;;;2.10;;
66663;SDS011;59683;51.428;-1.994;2024-01-30T02:35:35;6.23;;;2.63;;
66663;SDS011;59683;51.428;-1.994;2024-01-30T02:38:01;8.93;;;3.63;;
66663;SDS011;59683;51.428;-1.994;2024-01-30T02:40:26;11.30;;;4.40;;
66663;SDS011;59683;51.428;-1.994;2024-01-30T02:42:52;10.17;;;3.43;;
66663;SDS011;59683;51.428;-1.994;2024-01-30T02:45:17;12.70;;;5.33;;
66663;SDS011;59683;51.428;-1.994;2024-01-30T02:47:43;13.03;;;5.67;;
66663;SDS011;59683;51.428;-1.994;2024-01-30T02:50:08;13.50;;;5.13;;
66663;SDS011;59683;51.428;-1.994;2024-01-30T02:52:34;13.50;;;4.73;;
66663;SDS011;59683;51.428;-1.994;2024-01-30T02:54:59;12.23;;;6.23;;
66663;SDS011;59683;51.428;-1.994;2024-01-30T02:57:25;9.63;;;5.20;;
66663;SDS011;59683;51.428;-1.994;2024-01-30T02:59:50;12.20;;;5.80;;
66663;SDS011;59683;51.428;-1.994;2024-01-30T03:02:16;8.87;;;5.40;;
66663;SDS011;59683;51.428;-1.994;2024-01-30T03:04:41;7.93;;;4.50;;
66663;SDS011;59683;51.428;-1.994;2024-01-30T03:07:07;10.93;;;5.30;;
66663;SDS011;59683;51.428;-1.994;2024-01-30T03:09:32;9.73;;;4.77;;
66663;SDS011;59683;51.428;-1.994;2024-01-30T03:11:58;8.50;;;4.83;;
66663;SDS011;59683;51.428;-1.994;2024-01-30T03:14:23;9.60;;;4.20;;
66663;SDS011;59683;51.428;-1.994;2024-01-30T03:16:49;7.33;;;4.23;;
66663;SDS011;59683;51.428;-1.994;2024-01-30T03:19:14;7.37;;;3.97;;
66663;SDS011;59683;51.428;-1.994;2024-01-30T03:21:39;9.40;;;3.90;;
66663;SDS011;59683;51.428;-1.994;2024-01-30T03:24:05;8.23;;;3.20;;
66663;SDS011;59683;51.428;-1.994;2024-01-30T03:26:30;5.57;;;2.60;;
66663;SDS011;59683;51.428;-1.994;2024-01-30T03:28:56;5.00;;;2.77;;
66663;SDS011;59683;51.428;-1.994;2024-01-30T03:31:21;3.87;;;2.63;;
66663;SDS011;59683;51.428;-1.994;2024-01-30T03:33:47;4.77;;;1.93;;
66663;SDS011;59683;51.428;-1.994;2024-01-30T03:36:12;5.23;;;1.80;;
66663;SDS011;59683;51.428;-1.994;2024-01-30T03:38:38;3.10;;;1.50;;
66663;SDS011;59683;51.428;-1.994;2024-01-30T03:41:03;4.20;;;1.40;;
66663;SDS011;59683;51.428;-1.994;2024-01-30T03:43:32;2.00;;;1.20;;
66663;SDS011;59683;51.428;-1.994;2024-01-30T03:45:57;6.73;;;1.23;;
66663;SDS011;59683;51.428;-1.994;2024-01-30T03:48:23;5.60;;;1.00;;
66663;SDS011;59683;51.428;-1.994;2024-01-30T03:50:48;2.17;;;0.70;;
66663;SDS011;59683;51.428;-1.994;2024-01-30T03:53:13;1.60;;;0.60;;
66663;SDS011;59683;51.428;-1.994;2024-01-30T03:55:39;1.40;;;0.40;;
66663;SDS011;59683;51.428;-1.994;2024-01-30T03:58:04;1.60;;;0.50;;
66663;SDS011;59683;51.428;-1.994;2024-01-30T04:00:29;1.90;;;0.60;;
66663;SDS011;59683;51.428;-1.994;2024-01-30T04:02:55;2.43;;;0.37;;
66663;SDS011;59683;51.428;-1.994;2024-01-30T04:05:20;3.40;;;0.50;;
66663;SDS011;59683;51.428;-1.994;2024-01-30T04:07:46;0.53;;;0.23;;
66663;SDS011;59683;51.428;-1.994;2024-01-30T04:10:11;1.07;;;0.50;;
66663;SDS011;59683;51.428;-1.994;2024-01-30T04:12:36;1.53;;;0.40;;
66663;SDS011;59683;51.428;-1.994;2024-01-30T04:15:02;2.43;;;0.47;;
66663;SDS011;59683;51.428;-1.994;2024-01-30T04:17:28;1.05;;;0.52;;
66663;SDS011;59683;51.428;-1.994;2024-01-30T04:19:54;2.83;;;0.43;;
66663;SDS011;59683;51.428;-1.994;2024-01-30T04:22:19;2.00;;;0.50;;
66663;SDS011;59683;51.428;-1.994;2024-01-30T04:24:45;2.10;;;0.40;;
66663;SDS011;59683;51.428;-1.994;2024-01-30T04:27:10;0.83;;;0.40;;
66663;SDS011;59683;51.428;-1.994;2024-01-30T04:29:35;1.50;;;0.50;;
66663;SDS011;59683;51.428;-1.994;2024-01-30T04:32:01;1.20;;;0.50;;
66663;SDS011;59683;51.428;-1.994;2024-01-30T04:34:26;0.90;;;0.30;;
66663;SDS011;59683;51.428;-1.994;2024-01-30T04:36:52;1.67;;;0.87;;
66663;SDS011;59683;51.428;-1.994;2024-01-30T04:39:17;0.63;;;0.23;;
66663;SDS011;59683;51.428;-1.994;2024-01-30T04:41:42;2.33;;;0.33;;
66663;SDS011;59683;51.428;-1.994;2024-01-30T04:44:08;1.67;;;0.50;;
66663;SDS011;59683;51.428;-1.994;2024-01-30T04:46:33;1.03;;;0.30;;
66663;SDS011;59683;51.428;-1.994;2024-01-30T04:49:01;2.53;;;0.60;;
66663;SDS011;59683;51.428;-1.994;2024-01-30T04:51:28;2.80;;;0.60;;
66663;SDS011;59683;51.428;-1.994;2024-01-30T04:53:53;0.90;;;0.30;;
66663;SDS011;59683;51.428;-1.994;2024-01-30T04:56:19;3.40;;;0.30;;
66663;SDS011;59683;51.428;-1.994;2024-01-30T04:58:44;1.87;;;0.30;;
66663;SDS011;59683;51.428;-1.994;2024-01-30T05:01:09;1.90;;;0.40;;
66663;SDS011;59683;51.428;-1.994;2024-01-30T05:03:40;1.45;;;0.40;;
66663;SDS011;59683;51.428;-1.994;2024-01-30T05:06:05;3.13;;;0.47;;
66663;SDS011;59683;51.428;-1.994;2024-01-30T05:08:31;1.80;;;0.30;;
66663;SDS011;59683;51.428;-1.994;2024-01-30T05:10:59;2.20;;;0.55;;
66663;SDS011;59683;51.428;-1.994;2024-01-30T05:13:25;1.25;;;0.25;;
66663;SDS011;59683;51.428;-1.994;2024-01-30T05:15:50;3.67;;;0.50;;
66663;SDS011;59683;51.428;-1.994;2024-01-30T05:18:16;4.03;;;0.50;;
66663;SDS011;59683;51.428;-1.994;2024-01-30T05:20:41;3.87;;;0.80;;
66663;SDS011;59683;51.428;-1.994;2024-01-30T05:23:07;1.50;;;0.40;;
66663;SDS011;59683;51.428;-1.994;2024-01-30T05:25:33;1.83;;;0.37;;
66663;SDS011;59683;51.428;-1.994;2024-01-30T05:27:58;1.10;;;0.40;;
66663;SDS011;59683;51.428;-1.994;2024-01-30T05:30:23;3.97;;;0.47;;
66663;SDS011;59683;51.428;-1.994;2024-01-30T05:32:49;1.67;;;0.50;;
66663;SDS011;59683;51.428;-1.994;2024-01-30T05:35:14;3.13;;;0.50;;
66663;SDS011;59683;51.428;-1.994;2024-01-30T05:37:40;3.13;;;0.50;;
66663;SDS011;59683;51.428;-1.994;2024-01-30T05:40:05;2.17;;;0.37;;
66663;SDS011;59683;51.428;-1.994;2024-01-30T05:42:31;3.30;;;0.40;;
66663;SDS011;59683;51.428;-1.994;2024-01-30T05:44:57;1.00;;;0.30;;
66663;SDS011;59683;51.428;-1.994;2024-01-30T05:47:22;2.77;;;0.40;;
66663;SDS011;59683;51.428;-1.994;2024-01-30T05:49:47;1.70;;;0.30;;
66663;SDS011;59683;51.428;-1.994;2024-01-30T05:52:13;2.10;;;0.63;;
66663;SDS011;59683;51.428;-1.994;2024-01-30T05:54:40;5.30;;;1.05;;
66663;SDS011;59683;51.428;-1.994;2024-01-30T05:57:05;2.03;;;0.30;;
66663;SDS011;59683;51.428;-1.994;2024-01-30T05:59:31;3.60;;;0.60;;
66663;SDS011;59683;51.428;-1.994;2024-01-30T06:01:57;2.78;;;0.98;;
66663;SDS011;59683;51.428;-1.994;2024-01-30T06:04:22;3.63;;;0.73;;
66663;SDS011;59683;51.428;-1.994;2024-01-30T06:06:48;4.10;;;0.57;;
66663;SDS011;59683;51.428;-1.994;2024-01-30T06:09:13;2.37;;;0.70;;
66663;SDS011;59683;51.428;-1.994;2024-01-30T06:11:39;5.37;;;0.93;;
66663;SDS011;59683;51.428;-1.994;2024-01-30T06:14:04;1.63;;;0.50;;
66663;SDS011;59683;51.428;-1.994;2024-01-30T06:16:30;4.33;;;0.80;;
66663;SDS011;59683;51.428;-1.994;2024-01-30T06:18:56;2.10;;;0.70;;
66663;SDS011;59683;51.428;-1.994;2024-01-30T06:21:21;2.40;;;0.97;;
66663;SDS011;59683;51.428;-1.994;2024-01-30T06:23:47;1.87;;;0.77;;
66663;SDS011;59683;51.428;-1.994;2024-01-30T06:26:12;3.37;;;0.80;;
66663;SDS011;59683;51.428;-1.994;2024-01-30T06:28:38;5.50;;;0.77;;
66663;SDS011;59683;51.428;-1.994;2024-01-30T06:31:03;2.63;;;0.60;;
66663;SDS011;59683;51.428;-1.994;2024-01-30T06:33:28;7.67;;;1.00;;
66663;SDS011;59683;51.428;-1.994;2024-01-30T06:35:54;3.07;;;0.67;;
66663;SDS011;59683;51.428;-1.994;2024-01-30T06:38:19;4.13;;;1.10;;
66663;SDS011;59683;51.428;-1.994;2024-01-30T06:40:44;3.70;;;0.90;;
66663;SDS011;59683;51.428;-1.994;2024-01-30T06:43:10;4.27;;;0.90;;
66663;SDS011;59683;51.428;-1.994;2024-01-30T06:45:36;2.88;;;0.82;;
66663;SDS011;59683;51.428;-1.994;2024-01-30T06:48:02;3.17;;;0.65;;
66663;SDS011;59683;51.428;-1.994;2024-01-30T06:50:27;3.53;;;0.40;;
66663;SDS011;59683;51.428;-1.994;2024-01-30T06:52:53;3.70;;;0.90;;
66663;SDS011;59683;51.428;-1.994;2024-01-30T06:55:18;5.43;;;0.80;;
66663;SDS011;59683;51.428;-1.994;2024-01-30T06:57:44;4.17;;;0.70;;
66663;SDS011;59683;51.428;-1.994;2024-01-30T07:00:09;8.23;;;1.07;;
66663;SDS011;59683;51.428;-1.994;2024-01-30T07:02:35;4.72;;;0.60;;
66663;SDS011;59683;51.428;-1.994;2024-01-30T07:05:01;5.90;;;1.00;;
66663;SDS011;59683;51.428;-1.994;2024-01-30T07:07:27;3.73;;;0.87;;
66663;SDS011;59683;51.428;-1.994;2024-01-30T07:09:53;3.97;;;0.80;;
66663;SDS011;59683;51.428;-1.994;2024-01-30T07:12:21;2.85;;;1.55;;
66663;SDS011;59683;51.428;-1.994;2024-01-30T07:14:51;7.15;;;1.50;;
66663;SDS011;59683;51.428;-1.994;2024-01-30T07:17:17;3.72;;;1.08;;
66663;SDS011;59683;51.428;-1.994;2024-01-30T07:19:42;3.07;;;1.20;;
66663;SDS011;59683;51.428;-1.994;2024-01-30T07:22:08;9.03;;;1.70;;
66663;SDS011;59683;51.428;-1.994;2024-01-30T07:24:33;4.93;;;1.57;;
66663;SDS011;59683;51.428;-1.994;2024-01-30T07:26:59;6.37;;;2.13;;
66663;SDS011;59683;51.428;-1.994;2024-01-30T07:29:24;6.67;;;1.63;;
66663;SDS011;59683;51.428;-1.994;2024-01-30T07:31:49;4.10;;;1.50;;
66663;SDS011;59683;51.428;-1.994;2024-01-30T07:34:15;4.30;;;1.97;;
66663;SDS011;59683;51.428;-1.994;2024-01-30T07:36:41;7.47;;;2.53;;
66663;SDS011;59683;51.428;-1.994;2024-01-30T07:39:06;8.07;;;1.63;;
66663;SDS011;59683;51.428;-1.994;2024-01-30T07:41:32;4.80;;;2.30;;
66663;SDS011;59683;51.428;-1.994;2024-01-30T07:43:57;9.40;;;1.90;;
66663;SDS011;59683;51.428;-1.994;2024-01-30T07:46:23;8.37;;;2.53;;
66663;SDS011;59683;51.428;-1.994;2024-01-30T07:48:48;4.93;;;1.97;;
66663;SDS011;59683;51.428;-1.994;2024-01-30T07:51:13;8.20;;;2.27;;
66663;SDS011;59683;51.428;-1.994;2024-01-30T07:53:39;9.07;;;2.10;;
66663;SDS011;59683;51.428;-1.994;2024-01-30T07:56:06;7.63;;;2.42;;
66663;SDS011;59683;51.428;-1.994;2024-01-30T07:58:32;6.87;;;1.80;;
66663;SDS011;59683;51.428;-1.994;2024-01-30T08:00:57;7.93;;;3.03;;
66663;SDS011;59683;51.428;-1.994;2024-01-30T08:03:23;9.07;;;2.30;;
66663;SDS011;59683;51.428;-1.994;2024-01-30T08:05:49;8.77;;;3.10;;
66663;SDS011;59683;51.428;-1.994;2024-01-30T08:08:14;10.13;;;2.70;;
66663;SDS011;59683;51.428;-1.994;2024-01-30T08:10:40;7.97;;;2.93;;
66663;SDS011;59683;51.428;-1.994;2024-01-30T08:13:05;25.77;;;4.97;;
66663;SDS011;59683;51.428;-1.994;2024-01-30T08:15:31;14.33;;;3.53;;
66663;SDS011;59683;51.428;-1.994;2024-01-30T08:17:56;15.03;;;4.00;;
66663;SDS011;59683;51.428;-1.994;2024-01-30T08:20:26;11.70;;;3.28;;
66663;SDS011;59683;51.428;-1.994;2024-01-30T08:22:51;10.98;;;3.08;;
66663;SDS011;59683;51.428;-1.994;2024-01-30T08:25:17;16.03;;;3.87;;
66663;SDS011;59683;51.428;-1.994;2024-01-30T08:27:42;10.90;;;4.23;;
66663;SDS011;59683;51.428;-1.994;2024-01-30T08:30:08;13.27;;;3.90;;
66663;SDS011;59683;51.428;-1.994;2024-01-30T08:32:33;23.13;;;4.50;;
66663;SDS011;59683;51.428;-1.994;2024-01-30T08:34:59;14.27;;;4.13;;
66663;SDS011;59683;51.428;-1.994;2024-01-30T08:37:25;10.43;;;3.97;;
66663;SDS011;59683;51.428;-1.994;2024-01-30T08:39:50;13.00;;;4.87;;
66663;SDS011;59683;51.428;-1.994;2024-01-30T08:42:15;17.17;;;4.97;;
66663;SDS011;59683;51.428;-1.994;2024-01-30T08:44:43;20.13;;;5.50;;
66663;SDS011;59683;51.428;-1.994;2024-01-30T08:47:08;11.00;;;4.10;;
66663;SDS011;59683;51.428;-1.994;2024-01-30T08:49:34;14.40;;;4.43;;
66663;SDS011;59683;51.428;-1.994;2024-01-30T08:51:59;15.17;;;3.10;;
66663;SDS011;59683;51.428;-1.994;2024-01-30T08:54:25;15.53;;;3.73;;
66663;SDS011;59683;51.428;-1.994;2024-01-30T08:56:50;14.90;;;4.33;;
66663;SDS011;59683;51.428;-1.994;2024-01-30T08:59:17;16.13;;;3.93;;
66663;SDS011;59683;51.428;-1.994;2024-01-30T09:01:42;14.13;;;3.60;;
66663;SDS011;59683;51.428;-1.994;2024-01-30T09:04:08;17.80;;;3.47;;
66663;SDS011;59683;51.428;-1.994;2024-01-30T09:06:33;13.17;;;2.90;;
66663;SDS011;59683;51.428;-1.994;2024-01-30T09:08:58;9.40;;;2.80;;
66663;SDS011;59683;51.428;-1.994;2024-01-30T09:11:24;13.80;;;3.73;;
66663;SDS011;59683;51.428;-1.994;2024-01-30T09:13:49;9.83;;;3.00;;
66663;SDS011;59683;51.428;-1.994;2024-01-30T09:16:14;13.50;;;3.77;;
66663;SDS011;59683;51.428;-1.994;2024-01-30T09:18:41;12.50;;;3.43;;
66663;SDS011;59683;51.428;-1.994;2024-01-30T09:21:07;15.83;;;3.13;;
66663;SDS011;59683;51.428;-1.994;2024-01-30T09:23:32;8.97;;;2.80;;
66663;SDS011;59683;51.428;-1.994;2024-01-30T09:25:58;6.20;;;2.27;;
66663;SDS011;59683;51.428;-1.994;2024-01-30T09:28:24;10.17;;;2.60;;
66663;SDS011;59683;51.428;-1.994;2024-01-30T09:30:49;8.63;;;2.50;;
66663;SDS011;59683;51.428;-1.994;2024-01-30T09:33:14;8.07;;;2.10;;
66663;SDS011;59683;51.428;-1.994;2024-01-30T09:35:40;11.10;;;2.23;;
66663;SDS011;59683;51.428;-1.994;2024-01-30T09:38:05;6.47;;;1.90;;
66663;SDS011;59683;51.428;-1.994;2024-01-30T09:40:31;10.40;;;2.93;;
66663;SDS011;59683;51.428;-1.994;2024-01-30T09:42:56;16.77;;;3.23;;
66663;SDS011;59683;51.428;-1.994;2024-01-30T09:45:25;12.93;;;2.50;;
66663;SDS011;59683;51.428;-1.994;2024-01-30T09:47:51;12.23;;;2.90;;
66663;SDS011;59683;51.428;-1.994;2024-01-30T09:50:17;10.37;;;2.30;;
66663;SDS011;59683;51.428;-1.994;2024-01-30T09:52:44;8.93;;;1.87;;
66663;SDS011;59683;51.428;-1.994;2024-01-30T09:55:09;9.53;;;2.10;;
66663;SDS011;59683;51.428;-1.994;2024-01-30T09:57:35;10.47;;;2.30;;
66663;SDS011;59683;51.428;-1.994;2024-01-30T10:00:01;9.60;;;2.83;;
66663;SDS011;59683;51.428;-1.994;2024-01-30T10:02:27;7.97;;;2.05;;
66663;SDS011;59683;51.428;-1.994;2024-01-30T10:04:52;7.00;;;1.87;;
66663;SDS011;59683;51.428;-1.994;2024-01-30T10:07:18;7.00;;;2.03;;
66663;SDS011;59683;51.428;-1.994;2024-01-30T10:09:43;19.23;;;3.50;;
66663;SDS011;59683;51.428;-1.994;2024-01-30T10:12:09;9.00;;;1.97;;
66663;SDS011;59683;51.428;-1.994;2024-01-30T10:14:41;8.67;;;1.87;;
66663;SDS011;59683;51.428;-1.994;2024-01-30T10:17:07;9.68;;;2.40;;
66663;SDS011;59683;51.428;-1.994;2024-01-30T10:19:34;8.57;;;1.60;;
66663;SDS011;59683;51.428;-1.994;2024-01-30T10:22:00;10.77;;;2.47;;
66663;SDS011;59683;51.428;-1.994;2024-01-30T10:24:26;11.77;;;2.17;;
66663;SDS011;59683;51.428;-1.994;2024-01-30T10:26:52;9.17;;;2.00;;
66663;SDS011;59683;51.428;-1.994;2024-01-30T10:29:18;6.82;;;1.88;;
66663;SDS011;59683;51.428;-1.994;2024-01-30T10:31:43;9.80;;;3.10;;
66663;SDS011;59683;51.428;-1.994;2024-01-30T10:34:09;12.43;;;2.07;;
66663;SDS011;59683;51.428;-1.994;2024-01-30T10:36:37;8.60;;;1.57;;
66663;SDS011;59683;51.428;-1.994;2024-01-30T10:39:06;5.35;;;1.20;;
66663;SDS011;59683;51.428;-1.994;2024-01-30T10:41:33;4.60;;;1.20;;
66663;SDS011;59683;51.428;-1.994;2024-01-30T10:44:08;9.07;;;2.22;;
66663;SDS011;59683;51.428;-1.994;2024-01-30T10:46:34;6.83;;;1.33;;
66663;SDS011;59683;51.428;-1.994;2024-01-30T10:49:02;4.53;;;1.10;;
66663;SDS011;59683;51.428;-1.994;2024-01-30T10:51:29;4.03;;;1.02;;
66663;SDS011;59683;51.428;-1.994;2024-01-30T10:53:56;4.73;;;2.10;;
66663;SDS011;59683;51.428;-1.994;2024-01-30T10:56:22;9.43;;;1.77;;
66663;SDS011;59683;51.428;-1.994;2024-01-30T10:58:52;4.43;;;1.47;;
66663;SDS011;59683;51.428;-1.994;2024-01-30T11:01:22;7.13;;;1.65;;
66663;SDS011;59683;51.428;-1.994;2024-01-30T11:03:49;4.78;;;1.05;;
66663;SDS011;59683;51.428;-1.994;2024-01-30T11:06:16;4.23;;;1.17;;
66663;SDS011;59683;51.428;-1.994;2024-01-30T11:08:43;2.87;;;0.97;;
66663;SDS011;59683;51.428;-1.994;2024-01-30T11:11:10;6.37;;;1.00;;
66663;SDS011;59683;51.428;-1.994;2024-01-30T11:13:35;5.40;;;1.10;;
66663;SDS011;59683;51.428;-1.994;2024-01-30T11:16:02;7.00;;;1.33;;
66663;SDS011;59683;51.428;-1.994;2024-01-30T11:18:31;4.90;;;1.10;;
66663;SDS011;59683;51.428;-1.994;2024-01-30T11:20:58;5.32;;;1.20;;
66663;SDS011;59683;51.428;-1.994;2024-01-30T11:23:26;9.17;;;1.50;;
66663;SDS011;59683;51.428;-1.994;2024-01-30T11:25:52;9.50;;;1.73;;
66663;SDS011;59683;51.428;-1.994;2024-01-30T11:28:18;5.50;;;0.80;;
66663;SDS011;59683;51.428;-1.994;2024-01-30T11:30:43;5.83;;;1.13;;
66663;SDS011;59683;51.428;-1.994;2024-01-30T11:35:39;3.27;;;0.70;;
66663;SDS011;59683;51.428;-1.994;2024-01-30T11:38:05;4.30;;;0.90;;
66663;SDS011;59683;51.428;-1.994;2024-01-30T11:40:32;6.13;;;0.83;;
66663;SDS011;59683;51.428;-1.994;2024-01-30T11:42:59;4.67;;;1.30;;
66663;SDS011;59683;51.428;-1.994;2024-01-30T11:45:29;6.83;;;1.10;;
66663;SDS011;59683;51.428;-1.994;2024-01-30T11:47:54;3.63;;;1.30;;
66663;SDS011;59683;51.428;-1.994;2024-01-30T11:50:20;6.30;;;0.80;;
66663;SDS011;59683;51.428;-1.994;2024-01-30T11:52:46;5.63;;;0.93;;
66663;SDS011;59683;51.428;-1.994;2024-01-30T11:55:13;3.13;;;0.80;;
66663;SDS011;59683;51.428;-1.994;2024-01-30T11:57:39;5.47;;;0.87;;
66663;SDS011;59683;51.428;-1.994;2024-01-30T12:00:05;4.13;;;0.93;;
66663;SDS011;59683;51.428;-1.994;2024-01-30T12:05:04;7.43;;;0.80;;
66663;SDS011;59683;51.428;-1.994;2024-01-30T12:07:33;3.73;;;0.50;;
66663;SDS011;59683;51.428;-1.994;2024-01-30T12:09:58;2.93;;;0.53;;
66663;SDS011;59683;51.428;-1.994;2024-01-30T12:12:28;5.57;;;0.37;;
66663;SDS011;59683;51.428;-1.994;2024-01-30T12:14:54;6.57;;;0.80;;
66663;SDS011;59683;51.428;-1.994;2024-01-30T12:17:31;2.00;;;0.80;;
66663;SDS011;59683;51.428;-1.994;2024-01-30T12:20:08;1.35;;;0.40;;
66663;SDS011;59683;51.428;-1.994;2024-01-30T12:22:44;1.77;;;0.60;;
66663;SDS011;59683;51.428;-1.994;2024-01-30T12:25:12;6.67;;;0.50;;
66663;SDS011;59683;51.428;-1.994;2024-01-30T12:27:45;14.15;;;0.93;;
66663;SDS011;59683;51.428;-1.994;2024-01-30T12:30:12;1.35;;;0.90;;
66663;SDS011;59683;51.428;-1.994;2024-01-30T12:32:42;3.75;;;0.20;;
66663;SDS011;59683;51.428;-1.994;2024-01-30T12:35:12;2.05;;;0.30;;
66663;SDS011;59683;51.428;-1.994;2024-01-30T12:37:38;4.13;;;0.52;;
66663;SDS011;59683;51.428;-1.994;2024-01-30T12:40:04;2.75;;;0.40;;
66663;SDS011;59683;51.428;-1.994;2024-01-30T12:42:31;3.00;;;0.33;;
66663;SDS011;59683;51.428;-1.994;2024-01-30T12:44:57;3.97;;;0.30;;
66663;SDS011;59683;51.428;-1.994;2024-01-30T12:47:23;3.60;;;0.60;;
66663;SDS011;59683;51.428;-1.994;2024-01-30T12:49:49;1.97;;;0.30;;
66663;SDS011;59683;51.428;-1.994;2024-01-30T12:52:18;3.87;;;1.10;;
66663;SDS011;59683;51.428;-1.994;2024-01-30T12:54:44;2.97;;;0.30;;
66663;SDS011;59683;51.428;-1.994;2024-01-30T12:57:10;1.63;;;0.30;;
66663;SDS011;59683;51.428;-1.994;2024-01-30T12:59:35;0.73;;;0.20;;
66663;SDS011;59683;51.428;-1.994;2024-01-30T13:02:01;2.63;;;0.47;;
66663;SDS011;59683;51.428;-1.994;2024-01-30T13:04:27;3.30;;;0.40;;
66663;SDS011;59683;51.428;-1.994;2024-01-30T13:06:53;0.23;;;0.20;;
66663;SDS011;59683;51.428;-1.994;2024-01-30T13:09:18;3.90;;;0.50;;
66663;SDS011;59683;51.428;-1.994;2024-01-30T13:11:44;6.70;;;0.50;;
66663;SDS011;59683;51.428;-1.994;2024-01-30T13:14:10;3.53;;;0.30;;
66663;SDS011;59683;51.428;-1.994;2024-01-30T13:16:35;0.77;;;0.33;;
66663;SDS011;59683;51.428;-1.994;2024-01-30T13:19:01;2.13;;;0.30;;
66663;SDS011;59683;51.428;-1.994;2024-01-30T13:21:27;5.47;;;0.40;;
66663;SDS011;59683;51.428;-1.994;2024-01-30T13:23:53;1.70;;;0.50;;
66663;SDS011;59683;51.428;-1.994;2024-01-30T13:26:19;2.47;;;0.30;;
66663;SDS011;59683;51.428;-1.994;2024-01-30T13:28:45;5.07;;;0.60;;
66663;SDS011;59683;51.428;-1.994;2024-01-30T13:31:11;6.70;;;0.40;;
66663;SDS011;59683;51.428;-1.994;2024-01-30T13:33:37;2.23;;;0.50;;
66663;SDS011;59683;51.428;-1.994;2024-01-30T13:36:03;1.37;;;0.23;;
66663;SDS011;59683;51.428;-1.994;2024-01-30T13:38:28;19.97;;;1.53;;
66663;SDS011;59683;51.428;-1.994;2024-01-30T13:40:53;5.50;;;0.57;;
66663;SDS011;59683;51.428;-1.994;2024-01-30T13:43:19;1.90;;;0.50;;
66663;SDS011;59683;51.428;-1.994;2024-01-30T13:45:44;3.23;;;0.60;;
66663;SDS011;59683;51.428;-1.994;2024-01-30T13:48:11;0.53;;;0.20;;
66663;SDS011;59683;51.428;-1.994;2024-01-30T13:50:36;0.93;;;0.33;;
66663;SDS011;59683;51.428;-1.994;2024-01-30T13:53:02;0.60;;;0.30;;
66663;SDS011;59683;51.428;-1.994;2024-01-30T13:55:29;3.70;;;0.40;;
66663;SDS011;59683;51.428;-1.994;2024-01-30T13:57:54;2.50;;;0.40;;
66663;SDS011;59683;51.428;-1.994;2024-01-30T14:00:20;3.03;;;0.27;;
66663;SDS011;59683;51.428;-1.994;2024-01-30T14:02:47;0.93;;;0.30;;
66663;SDS011;59683;51.428;-1.994;2024-01-30T14:05:12;7.87;;;0.80;;
66663;SDS011;59683;51.428;-1.994;2024-01-30T14:07:39;2.10;;;0.50;;
66663;SDS011;59683;51.428;-1.994;2024-01-30T14:10:05;3.53;;;0.53;;
66663;SDS011;59683;51.428;-1.994;2024-01-30T14:12:31;2.90;;;0.40;;
66663;SDS011;59683;51.428;-1.994;2024-01-30T14:14:56;2.57;;;0.40;;
66663;SDS011;59683;51.428;-1.994;2024-01-30T14:17:22;6.90;;;0.60;;
66663;SDS011;59683;51.428;-1.994;2024-01-30T14:19:47;2.83;;;0.40;;
66663;SDS011;59683;51.428;-1.994;2024-01-30T14:22:12;7.50;;;0.87;;
66663;SDS011;59683;51.428;-1.994;2024-01-30T14:24:38;2.80;;;0.53;;
66663;SDS011;59683;51.428;-1.994;2024-01-30T14:27:03;4.17;;;1.77;;
66663;SDS011;59683;51.428;-1.994;2024-01-30T14:29:29;5.93;;;1.47;;
66663;SDS011;59683;51.428;-1.994;2024-01-30T14:31:54;5.10;;;1.77;;